Time;durP1;ratioP1;P1;durP2;ratioP2;P2;SDS_P1;SDS_P2;PMS_P1;PMS_P2;Temp;Humidity;BMP_temperature;BMP_pressure;BME280_temperature;BME280_humidity;BME280_pressure;Samples;Min_cycle;Max_cycle;Signal;HPM_P1;HPM_P2
2021/09/19 00:01:29;;;;;;;6.47;5.22;;;;;;;11.18;100.00;95658.00;5022916;28;25049;-79
2021/09/19 00:03:56;;;;;;;4.75;4.25;;;;;;;10.97;100.00;95652.47;5022507;28;24432;-78
2021/09/19 00:06:22;;;;;;;5.33;4.10;;;;;;;10.97;96.41;95649.88;5022536;28;24427;-79
2021/09/19 00:08:50;;;;;;;5.30;4.23;;;;;;;10.83;98.17;95663.75;5022103;28;24425;-78
2021/09/19 00:11:16;;;;;;;4.70;4.30;;;;;;;10.61;99.36;95652.19;5022099;28;24957;-78
2021/09/19 00:13:43;;;;;;;5.40;4.90;;;;;;;10.63;99.48;95646.91;5021813;28;24424;-78
2021/09/19 00:16:10;;;;;;;6.45;5.18;;;;;;;10.53;99.37;95651.88;5015023;28;24424;-78
2021/09/19 00:18:37;;;;;;;7.78;5.25;;;;;;;10.41;100.00;95655.22;5014626;28;24424;-76
2021/09/19 00:21:03;;;;;;;9.05;5.00;;;;;;;10.38;100.00;95660.59;5014000;28;24450;-77
2021/09/19 00:23:31;;;;;;;5.80;5.18;;;;;;;10.39;100.00;95655.31;5014698;28;20790;-77
2021/09/19 00:25:58;;;;;;;8.00;4.95;;;;;;;10.26;100.00;95651.84;5013257;28;20789;-77
2021/09/19 00:28:25;;;;;;;6.68;5.55;;;;;;;10.33;100.00;95657.47;5013572;28;24435;-77
2021/09/19 00:30:51;;;;;;;6.28;5.68;;;;;;;10.28;100.00;95657.78;5013193;28;24424;-78
2021/09/19 00:33:19;;;;;;;7.60;5.78;;;;;;;10.35;100.00;95643.50;5013620;28;24439;-77
2021/09/19 00:35:46;;;;;;;5.85;5.35;;;;;;;10.33;100.00;95642.75;5014441;28;24432;-78
2021/09/19 00:38:12;;;;;;;6.32;5.20;;;;;;;10.38;100.00;95638.13;5018616;28;24431;-78
2021/09/19 00:40:40;;;;;;;6.25;5.65;;;;;;;10.45;100.00;95633.38;5018711;28;24451;-78
2021/09/19 00:43:06;;;;;;;7.15;5.82;;;;;;;10.54;100.00;95626.78;5019344;28;24452;-78
2021/09/19 00:45:33;;;;;;;7.22;6.05;;;;;;;10.52;100.00;95626.03;5017613;28;24431;-78
2021/09/19 00:47:59;;;;;;;7.53;4.65;;;;;;;10.42;100.00;95628.41;5014908;28;24443;-78
2021/09/19 00:50:28;;;;;;;6.15;4.95;;;;;;;10.27;100.00;95630.22;5013564;28;24416;-77
2021/09/19 00:52:55;;;;;;;5.45;4.90;;;;;;;10.23;100.00;95633.88;5013395;28;20825;-78
2021/09/19 00:55:22;;;;;;;14.30;5.77;;;;;;;10.23;100.00;95631.28;5012872;28;20832;-78
2021/09/19 00:57:51;;;;;;;7.05;5.90;;;;;;;10.26;100.00;95630.31;5015436;28;20747;-78
2021/09/19 01:00:21;;;;;;;6.15;5.55;;;;;;;10.30;100.00;95624.00;5018866;28;24463;-78
2021/09/19 01:02:47;;;;;;;5.03;4.53;;;;;;;10.42;100.00;95618.06;5018283;28;24420;-76
2021/09/19 01:05:17;;;;;;;5.60;5.00;;;;;;;10.24;100.00;95620.03;5011897;28;20795;-76
2021/09/19 01:07:46;;;;;;;6.33;4.70;;;;;;;10.13;100.00;95622.47;5016389;28;20759;-78
2021/09/19 01:10:14;;;;;;;7.70;4.88;;;;;;;10.07;100.00;95618.50;5019213;28;24759;-77
2021/09/19 01:12:41;;;;;;;6.00;4.68;;;;;;;10.15;100.00;95615.44;5019395;28;20758;-78
2021/09/19 01:15:10;;;;;;;5.57;4.97;;;;;;;10.22;100.00;95608.94;5018874;28;20770;-78
2021/09/19 01:17:38;;;;;;;7.55;5.45;;;;;;;10.24;100.00;95609.69;5017554;28;24424;-75
2021/09/19 01:20:06;;;;;;;6.83;5.60;;;;;;;10.21;100.00;95598.69;5011772;28;24498;-76
2021/09/19 01:22:33;;;;;;;5.57;5.03;;;;;;;10.03;100.00;95603.28;5011935;28;20754;-76
2021/09/19 01:25:03;;;;;;;7.75;5.60;;;;;;;9.97;100.00;95601.91;5011309;28;20832;-75
2021/09/19 01:27:29;;;;;;;6.25;5.75;;;;;;;10.04;100.00;95597.16;5011981;28;20724;-78
2021/09/19 01:29:56;;;;;;;20.70;7.05;;;;;;;10.09;100.00;95583.03;5011767;28;20751;-78
2021/09/19 01:32:22;;;;;;;7.75;6.20;;;;;;;10.08;100.00;95583.09;5011761;28;24412;-78
2021/09/19 01:34:49;;;;;;;6.93;6.15;;;;;;;10.39;100.00;95585.44;5011375;28;24487;-78
2021/09/19 01:37:16;;;;;;;5.20;4.70;;;;;;;10.26;100.00;95579.38;5011789;28;20797;-78
2021/09/19 01:39:43;;;;;;;4.63;4.10;;;;;;;10.03;100.00;95574.81;5011503;28;20774;-78
2021/09/19 01:42:11;;;;;;;6.35;5.15;;;;;;;9.81;100.00;95581.34;5011827;28;20758;-78
2021/09/19 01:44:38;;;;;;;5.70;5.10;;;;;;;9.82;100.00;95574.41;5011340;28;20816;-77
2021/09/19 01:47:05;;;;;;;7.10;5.68;;;;;;;9.79;100.00;95572.88;5011525;28;24429;-77
2021/09/19 01:49:31;;;;;;;7.57;5.80;;;;;;;9.72;100.00;95578.53;5011335;28;24424;-77
2021/09/19 01:51:58;;;;;;;9.30;5.78;;;;;;;9.67;100.00;95569.25;5011275;28;24417;-77
2021/09/19 01:54:24;;;;;;;8.32;6.13;;;;;;;9.74;100.00;95569.72;5011017;28;24785;-78
2021/09/19 01:56:52;;;;;;;7.97;6.43;;;;;;;9.83;100.00;95563.97;5011445;28;24443;-78
2021/09/19 01:59:20;;;;;;;7.90;6.82;;;;;;;9.93;100.00;95564.22;5011517;28;20754;-78
2021/09/19 02:01:46;;;;;;;6.22;5.63;;;;;;;9.94;100.00;95560.72;5011114;28;24522;-78
2021/09/19 02:04:13;;;;;;;6.70;5.97;;;;;;;9.97;100.00;95564.84;5011057;28;24412;-78
2021/09/19 02:06:39;;;;;;;6.70;6.00;;;;;;;9.92;100.00;95570.31;5010559;28;24969;-78
2021/09/19 02:09:05;;;;;;;6.53;5.90;;;;;;;9.90;100.00;95561.81;5010380;28;24994;-78
2021/09/19 02:11:32;;;;;;;6.45;5.85;;;;;;;9.88;100.00;95553.34;5010859;28;24435;-78
2021/09/19 02:13:58;;;;;;;8.45;6.13;;;;;;;9.89;100.00;95552.41;5011122;28;24536;-78
2021/09/19 02:16:26;;;;;;;7.27;6.00;;;;;;;9.89;100.00;95552.41;5010806;28;24433;-77
2021/09/19 02:18:53;;;;;;;7.15;6.22;;;;;;;9.86;100.00;95566.38;5010980;28;20816;-77
2021/09/19 02:21:19;;;;;;;6.38;5.78;;;;;;;9.84;100.00;95563.03;5010751;28;24452;-78
2021/09/19 02:23:46;;;;;;;7.60;5.93;;;;;;;9.83;100.00;95553.63;5010931;28;24428;-77
2021/09/19 02:26:12;;;;;;;6.20;5.60;;;;;;;9.82;100.00;95559.72;5010513;28;24437;-78
2021/09/19 02:28:39;;;;;;;9.33;5.77;;;;;;;9.83;100.00;95561.41;5010693;28;24435;-77
2021/09/19 02:31:05;;;;;;;6.00;5.43;;;;;;;9.81;100.00;95555.47;5012761;28;24475;-78
2021/09/19 02:33:33;;;;;;;5.77;5.17;;;;;;;9.86;100.00;95544.84;5013436;28;25000;-78
2021/09/19 02:36:00;;;;;;;6.25;5.65;;;;;;;9.84;100.00;95547.53;5011936;28;20813;-78
2021/09/19 02:38:26;;;;;;;8.52;5.82;;;;;;;9.87;100.00;95531.81;5012122;28;20786;-78
2021/09/19 02:40:54;;;;;;;7.47;5.95;;;;;;;9.97;100.00;95529.44;5011030;28;24436;-78
2021/09/19 02:43:21;;;;;;;8.80;5.55;;;;;;;10.06;100.00;95518.53;5010723;28;21292;-78
2021/09/19 02:45:48;;;;;;;6.20;5.27;;;;;;;10.14;96.71;95523.22;5010494;28;20862;-78
2021/09/19 02:48:15;;;;;;;6.18;5.15;;;;;;;10.05;95.32;95521.19;5010596;28;20850;-77
2021/09/19 02:50:42;;;;;;;5.93;5.40;;;;;;;9.66;96.42;95520.25;5010444;28;24448;-78
2021/09/19 02:53:09;;;;;;;6.38;5.78;;;;;;;9.28;99.16;95517.47;5010677;28;24428;-78
2021/09/19 02:55:36;;;;;;;5.32;4.80;;;;;;;9.06;100.00;95521.34;5010305;28;24475;-77
2021/09/19 02:58:02;;;;;;;5.60;5.10;;;;;;;8.98;100.00;95520.19;5010700;28;24455;-78
2021/09/19 03:00:29;;;;;;;6.10;5.50;;;;;;;9.10;100.00;95522.00;5010458;28;24451;-77
2021/09/19 03:02:55;;;;;;;7.13;5.67;;;;;;;8.97;100.00;95521.91;5010363;28;24826;-77
2021/09/19 03:05:22;;;;;;;6.60;5.88;;;;;;;8.96;100.00;95521.06;5010491;28;24818;-78
2021/09/19 03:07:50;;;;;;;7.15;5.13;;;;;;;8.99;100.00;95522.66;5013510;28;20821;-78
2021/09/19 03:10:16;;;;;;;6.15;5.55;;;;;;;9.04;100.00;95512.03;5015147;28;20800;-78
2021/09/19 03:12:43;;;;;;;6.75;5.93;;;;;;;9.08;100.00;95514.31;5012923;28;24834;-79
2021/09/19 03:15:10;;;;;;;6.47;5.88;;;;;;;9.18;100.00;95512.84;5014009;28;20766;-78
2021/09/19 03:17:38;;;;;;;6.10;5.50;;;;;;;9.27;100.00;95506.31;5014542;28;20809;-78
2021/09/19 03:20:05;;;;;;;7.78;6.40;;;;;;;9.26;100.00;95512.38;5013896;28;21324;-79
2021/09/19 03:22:33;;;;;;;6.90;6.30;;;;;;;9.25;100.00;95502.16;5016117;28;20771;-78
2021/09/19 03:25:00;;;;;;;7.78;6.93;;;;;;;9.28;100.00;95500.22;5016091;28;24424;-79
2021/09/19 03:27:27;;;;;;;9.55;7.68;;;;;;;9.28;100.00;95507.13;5016769;28;20766;-79
2021/09/19 03:29:53;;;;;;;8.70;6.88;;;;;;;9.25;100.00;95502.97;5018120;28;24417;-79
2021/09/19 03:32:20;;;;;;;9.77;7.57;;;;;;;9.29;100.00;95508.78;5017358;28;24487;-78
2021/09/19 03:34:46;;;;;;;10.27;7.03;;;;;;;9.30;100.00;95513.03;5016422;28;24428;-78
2021/09/19 03:37:13;;;;;;;9.00;7.70;;;;;;;9.33;100.00;95505.91;5015976;28;24829;-78
2021/09/19 03:39:39;;;;;;;10.73;6.70;;;;;;;9.28;100.00;95505.38;5016150;28;24782;-79
2021/09/19 03:42:07;;;;;;;7.55;6.85;;;;;;;9.32;100.00;95508.59;5015852;28;24491;-79
2021/09/19 03:44:33;;;;;;;7.60;6.47;;;;;;;9.34;100.00;95504.16;5015759;28;24424;-79
2021/09/19 03:47:00;;;;;;;8.73;6.45;;;;;;;9.35;100.00;95509.25;5016437;28;20769;-78
2021/09/19 03:49:26;;;;;;;7.78;7.00;;;;;;;9.42;100.00;95507.94;5015802;28;24432;-79
2021/09/19 03:51:53;;;;;;;7.60;6.90;;;;;;;9.38;100.00;95516.81;5015905;28;20761;-78
2021/09/19 03:54:20;;;;;;;6.80;5.93;;;;;;;9.19;100.00;95518.84;5015617;28;20774;-79
2021/09/19 03:56:46;;;;;;;6.07;5.55;;;;;;;9.13;100.00;95516.66;5015697;28;20769;-79
2021/09/19 03:59:14;;;;;;;7.10;5.70;;;;;;;9.09;100.00;95510.03;5016972;28;24546;-78
2021/09/19 04:01:41;;;;;;;6.70;5.40;;;;;;;9.10;100.00;95506.50;5016434;28;20829;-79
2021/09/19 04:04:07;;;;;;;6.32;5.10;;;;;;;9.00;100.00;95513.16;5016243;28;24440;-79
2021/09/19 04:06:33;;;;;;;6.50;5.68;;;;;;;8.88;100.00;95505.22;5017579;28;24524;-78
2021/09/19 04:09:00;;;;;;;7.90;6.72;;;;;;;8.91;100.00;95512.78;5016151;28;24420;-78
2021/09/19 04:11:26;;;;;;;5.07;4.63;;;;;;;9.03;100.00;95511.22;5015846;28;24950;-78
2021/09/19 04:13:53;;;;;;;9.32;5.60;;;;;;;9.07;100.00;95504.09;5016679;28;20769;-79
2021/09/19 04:16:21;;;;;;;7.60;6.45;;;;;;;9.06;100.00;95499.88;5016687;28;20770;-78
2021/09/19 04:18:47;;;;;;;7.50;6.80;;;;;;;9.09;100.00;95507.44;5015691;28;24427;-77
2021/09/19 04:21:13;;;;;;;9.25;8.35;;;;;;;8.85;100.00;95513.16;5015325;28;20865;-79
2021/09/19 04:23:40;;;;;;;11.55;9.25;;;;;;;8.69;100.00;95515.00;5016265;28;24420;-78
2021/09/19 04:26:06;;;;;;;10.98;9.38;;;;;;;8.58;100.00;95509.63;5014889;28;20774;-78
2021/09/19 04:28:33;;;;;;;13.43;8.98;;;;;;;8.64;100.00;95515.28;5015230;28;20781;-79
2021/09/19 04:30:59;;;;;;;10.25;9.25;;;;;;;8.75;100.00;95513.78;5015946;28;20754;-79
2021/09/19 04:33:27;;;;;;;13.80;8.43;;;;;;;8.78;100.00;95509.25;5014035;28;24972;-77
2021/09/19 04:35:54;;;;;;;11.30;8.57;;;;;;;8.66;100.00;95517.75;5015606;28;20770;-78
2021/09/19 04:38:20;;;;;;;10.90;10.00;;;;;;;8.52;100.00;95513.41;5014556;28;20762;-77
2021/09/19 04:40:46;;;;;;;10.23;9.13;;;;;;;8.53;100.00;95524.53;5013062;28;24496;-78
2021/09/19 04:43:13;;;;;;;9.15;8.35;;;;;;;8.50;100.00;95520.41;5014621;28;21318;-79
2021/09/19 04:45:40;;;;;;;17.27;7.10;;;;;;;8.61;100.00;95525.78;5015258;28;20769;-79
2021/09/19 04:48:06;;;;;;;6.60;6.00;;;;;;;8.71;100.00;95524.31;5014866;28;20754;-78
2021/09/19 04:50:35;;;;;;;7.60;6.90;;;;;;;8.62;100.00;95524.03;5014801;28;24412;-79
2021/09/19 04:53:01;;;;;;;6.93;6.28;;;;;;;8.58;100.00;95530.28;5014340;28;24416;-78
2021/09/19 04:55:28;;;;;;;8.02;7.22;;;;;;;8.58;100.00;95525.13;5015368;28;20762;-79
2021/09/19 04:57:54;;;;;;;7.38;6.78;;;;;;;8.62;100.00;95531.75;5015636;28;20766;-78
2021/09/19 05:00:20;;;;;;;8.10;7.05;;;;;;;8.64;100.00;95529.91;5014523;28;24475;-79
2021/09/19 05:02:47;;;;;;;7.68;6.82;;;;;;;8.66;100.00;95536.66;5013884;28;24966;-78
2021/09/19 05:05:13;;;;;;;8.82;7.93;;;;;;;8.78;100.00;95532.50;5014007;28;24482;-78
2021/09/19 05:07:41;;;;;;;8.93;7.70;;;;;;;8.83;100.00;95527.09;5013907;28;24423;-79
2021/09/19 05:10:08;;;;;;;9.18;8.38;;;;;;;8.81;100.00;95531.50;5015049;28;24826;-78
2021/09/19 05:12:35;;;;;;;8.77;7.93;;;;;;;8.86;100.00;95535.50;5014359;28;24421;-78
2021/09/19 05:15:02;;;;;;;8.05;7.25;;;;;;;8.67;100.00;95540.06;5013761;28;24436;-79
2021/09/19 05:17:28;;;;;;;6.80;6.20;;;;;;;8.54;100.00;95544.28;5013388;28;24960;-79
2021/09/19 05:19:54;;;;;;;7.53;6.93;;;;;;;8.56;100.00;95542.44;5013488;28;24806;-79
2021/09/19 05:22:21;;;;;;;7.70;7.00;;;;;;;8.57;100.00;95534.63;5012925;28;24503;-78
2021/09/19 05:24:49;;;;;;;8.10;7.30;;;;;;;8.64;100.00;95540.22;5012959;28;24950;-78
2021/09/19 05:27:15;;;;;;;9.63;7.95;;;;;;;8.66;100.00;95546.97;5013618;28;24432;-78
2021/09/19 05:29:42;;;;;;;8.02;7.25;;;;;;;8.71;100.00;95550.13;5017468;28;24435;-78
2021/09/19 05:32:08;;;;;;;8.80;7.43;;;;;;;8.74;100.00;95554.25;5018404;28;24412;-78
2021/09/19 05:34:35;;;;;;;9.10;8.25;;;;;;;8.78;100.00;95552.34;5015173;28;24427;-79
2021/09/19 05:37:02;;;;;;;8.55;7.75;;;;;;;8.83;100.00;95553.75;5015765;28;24958;-78
2021/09/19 05:39:28;;;;;;;8.15;7.00;;;;;;;8.91;100.00;95554.09;5015157;28;20755;-79
2021/09/19 05:41:56;;;;;;;10.95;7.07;;;;;;;8.99;100.00;95551.06;5015723;28;20789;-79
2021/09/19 05:44:23;;;;;;;11.27;7.60;;;;;;;9.22;100.00;95552.25;5016059;28;20831;-79
2021/09/19 05:46:49;;;;;;;11.80;7.93;;;;;;;9.18;100.00;95548.19;5014953;28;24440;-79
2021/09/19 05:49:16;;;;;;;9.77;7.65;;;;;;;9.10;100.00;95558.19;5014495;28;20917;-78
2021/09/19 05:51:42;;;;;;;9.30;7.25;;;;;;;9.17;100.00;95557.72;5014783;28;20813;-78
2021/09/19 05:54:08;;;;;;;7.80;7.10;;;;;;;9.11;100.00;95554.66;5014204;28;24431;-78
2021/09/19 05:56:35;;;;;;;9.40;8.43;;;;;;;9.08;100.00;95550.50;5013176;28;21296;-79
2021/09/19 05:59:03;;;;;;;8.93;8.02;;;;;;;9.16;100.00;95552.66;5013685;28;20755;-79
2021/09/19 06:01:29;;;;;;;10.35;8.40;;;;;;;9.05;100.00;95549.84;5013940;28;20782;-79
2021/09/19 06:03:56;;;;;;;8.95;8.20;;;;;;;8.99;100.00;95558.00;5013659;28;24787;-79
2021/09/19 06:06:22;;;;;;;11.15;8.98;;;;;;;9.06;100.00;95554.13;5012169;28;24429;-77
2021/09/19 06:08:48;;;;;;;9.75;8.85;;;;;;;9.17;100.00;95547.38;5011634;28;24834;-79
2021/09/19 06:11:15;;;;;;;9.27;8.48;;;;;;;9.22;100.00;95547.09;5013681;28;24948;-78
2021/09/19 06:13:42;;;;;;;9.70;8.82;;;;;;;9.30;100.00;95544.84;5014478;28;24494;-78
2021/09/19 06:16:09;;;;;;;10.00;9.10;;;;;;;9.51;100.00;95536.72;5014164;28;24439;-79
2021/09/19 06:18:36;;;;;;;9.90;9.00;;;;;;;9.63;100.00;95536.78;5014456;28;20798;-79
2021/09/19 06:21:03;;;;;;;9.32;8.45;;;;;;;9.72;100.00;95529.38;5013471;28;24412;-78
2021/09/19 06:23:30;;;;;;;10.35;9.35;;;;;;;9.87;100.00;95537.00;5014536;28;20801;-79
2021/09/19 06:25:57;;;;;;;10.68;9.05;;;;;;;9.91;100.00;95540.22;5013513;28;21173;-78
2021/09/19 06:28:23;;;;;;;12.60;9.23;;;;;;;9.74;100.00;95536.09;5014060;28;24427;-79
2021/09/19 06:30:50;;;;;;;9.63;6.97;;;;;;;9.80;100.00;95532.31;5013625;28;24417;-79
2021/09/19 06:33:17;;;;;;;7.03;5.70;;;;;;;9.84;100.00;95531.19;5013355;28;24431;-78
2021/09/19 06:35:44;;;;;;;6.28;5.65;;;;;;;9.84;100.00;95531.19;5012968;28;24486;-79
2021/09/19 06:38:10;;;;;;;6.20;5.60;;;;;;;9.83;100.00;95532.94;5012787;28;24529;-80
2021/09/19 06:40:37;;;;;;;9.60;4.90;;;;;;;9.85;100.00;95536.25;5014132;28;24416;-78
2021/09/19 06:43:03;;;;;;;5.10;4.60;;;;;;;9.86;100.00;95537.94;5014724;28;24499;-80
2021/09/19 06:45:30;;;;;;;5.77;5.27;;;;;;;9.90;100.00;95536.81;5012185;28;24463;-80
2021/09/19 06:47:56;;;;;;;6.63;5.03;;;;;;;10.15;100.00;95542.97;5012648;28;21342;-81
2021/09/19 06:50:24;;;;;;;7.05;5.97;;;;;;;10.36;100.00;95540.78;5012817;28;20755;-81
2021/09/19 06:52:50;;;;;;;9.13;6.83;;;;;;;10.54;100.00;95537.00;5014575;28;25044;-80
2021/09/19 06:55:17;;;;;;;6.45;5.85;;;;;;;10.59;100.00;95544.44;5014018;28;24420;-81
2021/09/19 06:57:44;;;;;;;7.30;5.82;;;;;;;10.69;100.00;95544.66;5018320;28;24992;-79
2021/09/19 07:00:11;;;;;;;6.63;5.93;;;;;;;10.85;100.00;95543.53;5017347;28;24504;-79
2021/09/19 07:02:37;;;;;;;7.25;6.50;;;;;;;11.13;100.00;95544.25;5019249;28;24451;-80
2021/09/19 07:05:05;;;;;;;9.65;7.32;;;;;;;11.52;100.00;95540.66;5016707;28;20794;-80
2021/09/19 07:07:32;;;;;;;9.35;8.30;;;;;;;11.67;100.00;95538.75;5016870;28;24436;-80
2021/09/19 07:09:59;;;;;;;8.55;7.82;;;;;;;11.67;100.00;95538.75;5016672;28;24423;-80
2021/09/19 07:12:25;;;;;;;8.18;7.38;;;;;;;11.86;100.00;95543.47;5016352;28;24463;-80
2021/09/19 07:14:52;;;;;;;9.35;7.07;;;;;;;12.05;100.00;95546.44;5016404;28;24432;-79
2021/09/19 07:17:18;;;;;;;7.47;6.78;;;;;;;12.20;100.00;95544.50;5015578;28;24437;-79
2021/09/19 07:19:45;;;;;;;7.68;7.07;;;;;;;12.39;100.00;95545.75;5017220;28;24487;-81
2021/09/19 07:22:11;;;;;;;8.27;7.47;;;;;;;12.58;100.00;95548.63;5015942;28;24848;-80
2021/09/19 07:24:39;;;;;;;7.97;6.47;;;;;;;12.78;100.00;95547.97;5015670;28;24424;-81
2021/09/19 07:27:06;;;;;;;7.57;6.57;;;;;;;12.95;100.00;95549.31;5015946;28;24514;-81
2021/09/19 07:29:34;;;;;;;6.60;5.90;;;;;;;12.74;100.00;95566.50;5016156;28;24428;-79
2021/09/19 07:32:01;;;;;;;5.60;5.10;;;;;;;12.46;100.00;95565.09;5015824;28;24432;-81
2021/09/19 07:34:29;;;;;;;5.45;4.95;;;;;;;12.23;100.00;95570.22;5015867;28;25032;-80
2021/09/19 07:36:56;;;;;;;5.80;5.15;;;;;;;12.28;100.00;95570.72;5015803;28;24428;-81
2021/09/19 07:39:23;;;;;;;6.63;5.43;;;;;;;12.31;100.00;95578.28;5015991;28;24961;-81
2021/09/19 07:41:53;;;;;;;8.02;6.78;;;;;;;12.04;100.00;95577.66;5015959;28;24455;-80
2021/09/19 07:44:20;;;;;;;5.82;5.32;;;;;;;12.11;100.00;95586.69;5015471;28;25016;-80
2021/09/19 07:46:49;;;;;;;7.45;6.53;;;;;;;12.62;100.00;95593.41;5014964;28;24954;-72
2021/09/19 07:49:16;;;;;;;7.57;6.88;;;;;;;13.00;100.00;95595.75;5014926;28;24467;-79
2021/09/19 07:51:43;;;;;;;6.82;6.18;;;;;;;13.44;100.00;95599.38;5017137;28;24475;-81
2021/09/19 07:54:10;;;;;;;7.80;7.10;;;;;;;13.79;99.14;95600.09;5015277;28;24857;-80
2021/09/19 07:56:36;;;;;;;7.13;6.38;;;;;;;14.11;96.54;95598.47;5016016;28;24428;-79
2021/09/19 07:59:04;;;;;;;9.52;7.65;;;;;;;14.13;96.87;95597.41;5014469;28;24452;-79
2021/09/19 08:01:31;;;;;;;8.63;7.78;;;;;;;14.15;96.41;95597.28;5015636;28;24471;-80
2021/09/19 08:03:57;;;;;;;9.48;8.57;;;;;;;14.22;95.60;95590.63;5014562;28;24483;-79
2021/09/19 08:06:24;;;;;;;10.65;8.45;;;;;;;14.55;98.34;95589.72;5014222;28;24950;-80
2021/09/19 08:08:51;;;;;;;10.25;9.20;;;;;;;15.05;98.04;95591.72;5013907;28;25004;-80
2021/09/19 08:11:17;;;;;;;10.63;9.45;;;;;;;15.37;93.48;95586.41;5015200;28;24424;-80
2021/09/19 08:13:46;;;;;;;11.77;9.25;;;;;;;15.55;92.84;95581.41;5015506;28;24782;-78
2021/09/19 08:16:14;;;;;;;9.63;8.73;;;;;;;15.70;89.52;95577.50;5014770;28;24938;-80
2021/09/19 08:18:41;;;;;;;10.23;9.20;;;;;;;15.73;93.02;95582.47;5015071;28;24439;-78
2021/09/19 08:21:07;;;;;;;8.97;8.07;;;;;;;15.83;90.67;95580.69;5015573;28;24500;-80
2021/09/19 08:23:34;;;;;;;7.83;7.03;;;;;;;15.76;90.64;95584.81;5015300;28;24478;-78
2021/09/19 08:26:00;;;;;;;7.63;6.93;;;;;;;16.15;92.58;95585.72;5015544;28;24488;-79
2021/09/19 08:28:27;;;;;;;11.88;10.35;;;;;;;16.60;93.46;95593.06;5016532;28;24421;-79
2021/09/19 08:30:53;;;;;;;11.85;8.90;;;;;;;16.61;91.48;95589.50;5019858;28;24424;-79
2021/09/19 08:33:26;;;;;;;10.10;9.07;;;;;;;16.64;89.88;95585.75;5018332;28;24926;-79
2021/09/19 08:35:53;;;;;;;10.77;9.18;;;;;;;17.28;87.17;95579.09;5016157;28;24432;-79
2021/09/19 08:38:19;;;;;;;10.35;9.35;;;;;;;17.18;88.53;95579.97;5015837;28;24778;-79
2021/09/19 08:40:46;;;;;;;11.10;9.68;;;;;;;17.20;83.02;95584.22;5015772;28;24823;-80
2021/09/19 08:43:12;;;;;;;10.33;9.00;;;;;;;16.66;82.43;95579.44;5015437;28;24461;-79
2021/09/19 08:45:40;;;;;;;11.95;10.75;;;;;;;15.97;86.21;95575.09;5014923;28;24424;-79
2021/09/19 08:48:07;;;;;;;11.38;9.32;;;;;;;16.00;85.38;95576.63;5014941;28;24483;-78
2021/09/19 08:50:34;;;;;;;12.02;10.07;;;;;;;16.55;83.67;95581.38;5008701;28;24441;-75
2021/09/19 08:53:01;;;;;;;11.15;10.05;;;;;;;16.55;82.54;95582.19;5014319;28;24786;-79
2021/09/19 08:55:28;;;;;;;12.63;10.25;;;;;;;17.11;84.27;95578.88;5014665;28;24428;-79
2021/09/19 08:57:54;;;;;;;11.38;10.27;;;;;;;17.55;84.42;95581.78;5015431;28;24432;-80
2021/09/19 09:00:20;;;;;;;12.38;11.07;;;;;;;17.89;86.81;95583.88;5015380;28;24432;-79
2021/09/19 09:02:50;;;;;;;11.48;9.60;;;;;;;18.01;80.03;95576.63;5015367;28;24503;-78
2021/09/19 09:05:22;;;;;;;10.95;9.75;;;;;;;18.18;77.72;95577.66;5015064;28;24440;-79
2021/09/19 09:07:51;;;;;;;12.25;10.27;;;;;;;17.47;77.07;95576.44;5015551;28;24447;-79
2021/09/19 09:10:29;;;;;;;14.15;9.60;;;;;;;18.13;83.62;95580.69;5015861;28;24454;-79
2021/09/19 09:12:59;;;;;;;11.25;10.13;;;;;;;18.33;76.03;95570.91;5015671;28;24421;-79
2021/09/19 09:15:31;;;;;;;14.97;9.23;;;;;;;18.60;76.63;95583.94;5015835;28;24420;-80
2021/09/19 09:17:58;;;;;;;11.88;9.05;;;;;;;18.73;71.88;95583.63;5015304;28;24933;-79
2021/09/19 09:20:24;;;;;;;10.40;9.30;;;;;;;18.01;69.60;95582.69;5014799;28;24439;-78
2021/09/19 09:22:52;;;;;;;9.70;8.70;;;;;;;18.52;74.56;95585.69;5015140;28;24452;-80
2021/09/19 09:25:18;;;;;;;10.18;9.05;;;;;;;18.57;72.30;95589.50;5015143;28;24432;-79
2021/09/19 09:27:47;;;;;;;10.68;8.82;;;;;;;18.50;74.53;95588.47;5015503;28;24997;-80
2021/09/19 09:30:16;;;;;;;19.13;9.48;;;;;;;18.22;74.82;95589.47;5016247;28;24957;-80
2021/09/19 09:32:55;;;;;;;10.27;9.02;;;;;;;18.19;75.28;95587.97;5016874;28;24494;-79
2021/09/19 09:35:23;;;;;;;11.13;9.63;;;;;;;18.09;73.93;95587.19;5014551;28;24778;-79
2021/09/19 09:37:49;;;;;;;11.05;9.23;;;;;;;18.10;75.41;95587.06;5013639;28;24790;-76
2021/09/19 09:40:19;;;;;;;14.10;10.05;;;;;;;18.07;75.17;95595.22;5014834;28;24432;-80
2021/09/19 09:43:03;;;;;;;10.98;9.38;;;;;;;18.49;75.15;95585.97;5014986;28;24448;-80
2021/09/19 09:45:31;;;;;;;11.70;10.23;;;;;;;18.50;74.72;95590.25;5014487;28;24433;-80
2021/09/19 09:47:57;;;;;;;12.95;10.43;;;;;;;18.63;73.44;95594.16;5015056;28;24950;-79
2021/09/19 09:50:25;;;;;;;14.98;11.00;;;;;;;18.13;73.94;95596.41;5014546;28;24922;-81
2021/09/19 09:52:53;;;;;;;14.80;11.18;;;;;;;17.74;75.40;95591.34;5014474;28;24890;-80
2021/09/19 09:55:22;;;;;;;10.55;9.48;;;;;;;17.86;74.94;95587.59;5014618;28;24425;-80
2021/09/19 09:58:06;;;;;;;10.85;9.68;;;;;;;18.37;75.25;95580.13;5013854;28;24480;-79
2021/09/19 10:00:35;;;;;;;12.60;10.30;;;;;;;18.47;73.18;95580.88;5013414;28;24423;-80
2021/09/19 10:03:02;;;;;;;11.52;9.90;;;;;;;18.82;71.71;95582.69;5014796;28;24451;-79
2021/09/19 10:05:29;;;;;;;11.55;10.27;;;;;;;19.06;76.01;95583.88;5014327;28;24464;-80
2021/09/19 10:07:57;;;;;;;10.77;9.68;;;;;;;19.27;72.76;95575.63;5014046;28;24463;-80
2021/09/19 10:10:27;;;;;;;11.32;10.18;;;;;;;19.36;76.26;95582.59;5014321;28;24427;-80
2021/09/19 10:12:55;;;;;;;11.35;9.77;;;;;;;19.43;77.74;95578.38;5014016;28;24942;-78
2021/09/19 10:15:22;;;;;;;11.48;9.27;;;;;;;18.98;71.75;95581.19;5014111;28;24443;-78
2021/09/19 10:17:49;;;;;;;10.87;9.60;;;;;;;18.65;71.22;95572.19;5013840;28;24420;-79
2021/09/19 10:20:18;;;;;;;10.35;9.35;;;;;;;18.98;70.53;95583.81;5013948;28;24431;-79
2021/09/19 10:22:51;;;;;;;10.73;8.88;;;;;;;18.68;70.36;95577.94;5013283;28;24881;-79
2021/09/19 10:25:22;;;;;;;9.93;8.95;;;;;;;18.80;71.85;95573.31;5013747;28;24425;-80
2021/09/19 10:27:50;;;;;;;9.10;8.30;;;;;;;18.69;69.25;95570.91;5013230;28;24981;-79
2021/09/19 10:30:18;;;;;;;9.15;8.25;;;;;;;19.40;76.52;95565.56;5013262;28;24527;-80
2021/09/19 10:32:47;;;;;;;11.70;8.93;;;;;;;19.79;69.54;95557.22;5014501;28;24822;-79
2021/09/19 10:35:28;;;;;;;10.57;8.75;;;;;;;19.87;69.65;95557.25;5013499;28;25393;-79
2021/09/19 10:37:56;;;;;;;10.13;8.45;;;;;;;19.32;68.18;95565.50;5013173;28;24417;-79
2021/09/19 10:40:31;;;;;;;9.25;8.35;;;;;;;19.12;71.96;95561.44;5013762;28;24511;-80
2021/09/19 10:43:00;;;;;;;10.60;7.88;;;;;;;18.88;69.72;95556.84;5013187;28;24536;-74
2021/09/19 10:45:41;;;;;;;9.07;7.97;;;;;;;18.98;71.17;95560.19;5013092;28;24973;-79
2021/09/19 10:48:13;;;;;;;8.30;7.40;;;;;;;19.63;69.34;95554.53;5013473;28;24413;-79
2021/09/19 10:50:40;;;;;;;8.68;7.75;;;;;;;19.79;68.97;95550.16;5013472;28;24961;-79
2021/09/19 10:53:20;;;;;;;8.55;7.35;;;;;;;20.06;69.39;95553.56;5013215;28;24429;-79
2021/09/19 10:55:49;;;;;;;7.03;6.10;;;;;;;19.81;66.38;95545.59;5014441;28;24787;-79
2021/09/19 10:58:22;;;;;;;10.10;6.90;;;;;;;19.76;69.93;95536.50;5016560;28;24486;-79
2021/09/19 11:01:16;;;;;;;7.65;6.95;;;;;;;19.69;67.62;95538.97;5013611;28;24428;-78
2021/09/19 11:03:45;;;;;;;8.00;6.70;;;;;;;19.33;69.39;95533.03;5013464;28;24978;-79
2021/09/19 11:06:23;;;;;;;10.75;6.43;;;;;;;19.66;75.68;95533.22;5013482;28;24504;-79
2021/09/19 11:08:49;;;;;;;5.97;5.47;;;;;;;19.89;77.63;95529.03;5014161;28;24778;-80
2021/09/19 11:11:29;;;;;;;8.27;6.00;;;;;;;19.65;68.26;95523.66;5013560;28;24432;-79
2021/09/19 11:14:01;;;;;;;6.75;5.72;;;;;;;19.39;68.94;95534.19;5012906;28;24420;-79
2021/09/19 11:16:34;;;;;;;7.28;5.70;;;;;;;19.22;69.42;95525.41;5013339;28;24519;-79
2021/09/19 11:19:03;;;;;;;9.35;6.80;;;;;;;18.93;67.76;95530.97;5013469;28;24559;-80
2021/09/19 11:21:32;;;;;;;9.13;5.97;;;;;;;19.26;75.10;95530.19;5013315;28;24460;-80
2021/09/19 11:24:01;;;;;;;7.88;7.07;;;;;;;19.36;67.15;95527.47;5013629;28;24544;-79
2021/09/19 11:26:31;;;;;;;10.05;6.53;;;;;;;19.29;66.64;95529.06;5014868;28;24443;-79
2021/09/19 11:29:01;;;;;;;7.50;6.78;;;;;;;19.36;65.88;95521.38;5014142;28;24531;-79
2021/09/19 11:31:28;;;;;;;7.13;6.28;;;;;;;19.51;68.47;95536.41;5014451;28;24420;-79